sensor_id;sensor_type;location;lat;lon;timestamp;pressure;altitude;pressure_sealevel;temperature;humidity
43071;BME280;36278;47.952;21.714;2024-03-25T00:00:41;99195.38;;;4.36;88.94
43071;BME280;36278;47.952;21.714;2024-03-25T00:03:06;99198.00;;;4.36;88.01
43071;BME280;36278;47.952;21.714;2024-03-25T00:05:31;99194.25;;;4.40;88.57
43071;BME280;36278;47.952;21.714;2024-03-25T00:07:57;99199.56;;;4.39;88.74
43071;BME280;36278;47.952;21.714;2024-03-25T00:10:23;99189.50;;;4.45;88.94
43071;BME280;36278;47.952;21.714;2024-03-25T00:12:49;99192.66;;;4.50;88.72
43071;BME280;36278;47.952;21.714;2024-03-25T00:15:19;99192.75;;;4.36;90.21
43071;BME280;36278;47.952;21.714;2024-03-25T00:17:45;99184.59;;;4.28;90.06
43071;BME280;36278;47.952;21.714;2024-03-25T00:20:12;99183.53;;;4.31;91.37
43071;BME280;36278;47.952;21.714;2024-03-25T00:22:38;99182.69;;;4.30;90.24
43071;BME280;36278;47.952;21.714;2024-03-25T00:25:04;99174.09;;;4.28;90.72
43071;BME280;36278;47.952;21.714;2024-03-25T00:27:29;99175.69;;;4.43;90.72
43071;BME280;36278;47.952;21.714;2024-03-25T00:29:56;99180.41;;;4.51;89.05
43071;BME280;36278;47.952;21.714;2024-03-25T00:32:21;99174.09;;;4.54;89.66
43071;BME280;36278;47.952;21.714;2024-03-25T00:34:46;99174.50;;;4.60;88.47
43071;BME280;36278;47.952;21.714;2024-03-25T00:37:12;99173.13;;;4.55;88.45
43071;BME280;36278;47.952;21.714;2024-03-25T00:39:38;99176.94;;;4.50;89.63
43071;BME280;36278;47.952;21.714;2024-03-25T00:42:03;99168.88;;;4.41;88.71
43071;BME280;36278;47.952;21.714;2024-03-25T00:44:29;99168.56;;;4.33;90.02
43071;BME280;36278;47.952;21.714;2024-03-25T00:46:55;99171.81;;;4.24;91.06
43071;BME280;36278;47.952;21.714;2024-03-25T00:49:20;99166.31;;;4.14;91.83
43071;BME280;36278;47.952;21.714;2024-03-25T00:51:47;99156.91;;;4.11;91.95
43071;BME280;36278;47.952;21.714;2024-03-25T00:54:12;99161.91;;;4.14;92.80
43071;BME280;36278;47.952;21.714;2024-03-25T00:56:37;99160.47;;;4.10;92.50
43071;BME280;36278;47.952;21.714;2024-03-25T00:59:03;99167.88;;;4.04;92.26
43071;BME280;36278;47.952;21.714;2024-03-25T01:01:32;99166.25;;;4.15;91.46
43071;BME280;36278;47.952;21.714;2024-03-25T01:03:58;99168.53;;;4.20;92.01
43071;BME280;36278;47.952;21.714;2024-03-25T01:06:24;99159.22;;;4.16;92.01
43071;BME280;36278;47.952;21.714;2024-03-25T01:08:50;99167.34;;;3.99;93.74
43071;BME280;36278;47.952;21.714;2024-03-25T01:11:16;99165.28;;;3.91;94.69
43071;BME280;36278;47.952;21.714;2024-03-25T01:13:42;99167.56;;;3.96;96.01
43071;BME280;36278;47.952;21.714;2024-03-25T01:16:08;99161.09;;;4.01;94.41
43071;BME280;36278;47.952;21.714;2024-03-25T01:18:33;99150.25;;;3.80;95.25
43071;BME280;36278;47.952;21.714;2024-03-25T01:20:59;99152.75;;;3.82;96.84
43071;BME280;36278;47.952;21.714;2024-03-25T01:23:24;99152.03;;;3.80;95.98
43071;BME280;36278;47.952;21.714;2024-03-25T01:25:50;99152.66;;;3.71;96.80
43071;BME280;36278;47.952;21.714;2024-03-25T01:28:15;99159.25;;;3.76;96.51
43071;BME280;36278;47.952;21.714;2024-03-25T01:30:41;99163.13;;;3.71;97.70
43071;BME280;36278;47.952;21.714;2024-03-25T01:33:06;99163.97;;;3.71;98.01
43071;BME280;36278;47.952;21.714;2024-03-25T01:35:32;99160.16;;;3.62;97.55
43071;BME280;36278;47.952;21.714;2024-03-25T01:37:57;99156.00;;;3.73;97.22
43071;BME280;36278;47.952;21.714;2024-03-25T01:40:23;99156.50;;;3.65;96.16
43071;BME280;36278;47.952;21.714;2024-03-25T01:42:56;99154.72;;;3.65;96.75
43071;BME280;36278;47.952;21.714;2024-03-25T01:45:22;99149.56;;;3.51;95.97
43071;BME280;36278;47.952;21.714;2024-03-25T01:47:47;99153.81;;;3.40;98.15
43071;BME280;36278;47.952;21.714;2024-03-25T01:50:13;99157.97;;;3.29;99.15
43071;BME280;36278;47.952;21.714;2024-03-25T01:52:39;99156.91;;;3.32;100.00
43071;BME280;36278;47.952;21.714;2024-03-25T01:55:07;99157.75;;;3.32;99.76
43071;BME280;36278;47.952;21.714;2024-03-25T01:57:34;99162.50;;;3.40;99.63
43071;BME280;36278;47.952;21.714;2024-03-25T01:59:59;99156.31;;;3.41;99.13
43071;BME280;36278;47.952;21.714;2024-03-25T02:02:25;99156.25;;;3.43;98.67
43071;BME280;36278;47.952;21.714;2024-03-25T02:04:51;99147.34;;;3.45;98.63
43071;BME280;36278;47.952;21.714;2024-03-25T02:07:16;99155.75;;;3.50;98.38
43071;BME280;36278;47.952;21.714;2024-03-25T02:09:43;99160.72;;;3.41;97.56
43071;BME280;36278;47.952;21.714;2024-03-25T02:12:09;99159.50;;;3.46;98.97
43071;BME280;36278;47.952;21.714;2024-03-25T02:14:35;99159.69;;;3.43;97.57
43071;BME280;36278;47.952;21.714;2024-03-25T02:17:01;99154.00;;;3.36;99.44
43071;BME280;36278;47.952;21.714;2024-03-25T02:19:27;99154.50;;;3.29;98.30
43071;BME280;36278;47.952;21.714;2024-03-25T02:21:53;99158.16;;;3.26;98.64
43071;BME280;36278;47.952;21.714;2024-03-25T02:24:20;99159.00;;;3.27;98.52
43071;BME280;36278;47.952;21.714;2024-03-25T02:26:46;99157.22;;;3.27;98.78
43071;BME280;36278;47.952;21.714;2024-03-25T02:29:12;99144.44;;;3.23;99.62
43071;BME280;36278;47.952;21.714;2024-03-25T02:31:37;99154.88;;;3.23;98.36
43071;BME280;36278;47.952;21.714;2024-03-25T02:34:03;99157.13;;;3.29;98.64
43071;BME280;36278;47.952;21.714;2024-03-25T02:36:28;99153.84;;;3.25;98.03
43071;BME280;36278;47.952;21.714;2024-03-25T02:38:54;99158.56;;;3.20;98.75
43071;BME280;36278;47.952;21.714;2024-03-25T02:41:19;99158.72;;;3.17;98.93
43071;BME280;36278;47.952;21.714;2024-03-25T02:43:48;99159.41;;;3.21;98.77
43071;BME280;36278;47.952;21.714;2024-03-25T02:46:13;99166.31;;;3.22;98.23
43071;BME280;36278;47.952;21.714;2024-03-25T02:48:39;99166.31;;;3.22;98.67
43071;BME280;36278;47.952;21.714;2024-03-25T02:51:04;99170.50;;;3.24;97.43
43071;BME280;36278;47.952;21.714;2024-03-25T02:53:30;99162.97;;;3.32;98.17
43071;BME280;36278;47.952;21.714;2024-03-25T02:55:55;99171.78;;;3.31;96.69
43071;BME280;36278;47.952;21.714;2024-03-25T02:58:21;99162.34;;;3.29;96.82
43071;BME280;36278;47.952;21.714;2024-03-25T03:00:46;99161.63;;;3.27;95.89
43071;BME280;36278;47.952;21.714;2024-03-25T03:03:12;99163.72;;;3.07;98.47
43071;BME280;36278;47.952;21.714;2024-03-25T03:05:37;99163.34;;;3.14;99.15
43071;BME280;36278;47.952;21.714;2024-03-25T03:08:03;99156.13;;;3.17;97.50
43071;BME280;36278;47.952;21.714;2024-03-25T03:10:29;99166.34;;;3.07;97.53
43071;BME280;36278;47.952;21.714;2024-03-25T03:12:54;99154.25;;;3.19;96.28
43071;BME280;36278;47.952;21.714;2024-03-25T03:15:19;99170.00;;;3.05;97.45
43071;BME280;36278;47.952;21.714;2024-03-25T03:17:45;99167.72;;;3.13;97.26
43071;BME280;36278;47.952;21.714;2024-03-25T03:20:10;99160.47;;;3.04;97.27
43071;BME280;36278;47.952;21.714;2024-03-25T03:22:36;99157.84;;;3.04;97.43
43071;BME280;36278;47.952;21.714;2024-03-25T03:25:02;99169.19;;;3.17;96.90
43071;BME280;36278;47.952;21.714;2024-03-25T03:27:28;99172.03;;;3.14;95.78
43071;BME280;36278;47.952;21.714;2024-03-25T03:29:56;99167.13;;;3.22;95.28
43071;BME280;36278;47.952;21.714;2024-03-25T03:32:21;99172.22;;;3.11;95.53
43071;BME280;36278;47.952;21.714;2024-03-25T03:34:46;99169.72;;;3.09;96.46
43071;BME280;36278;47.952;21.714;2024-03-25T03:37:12;99160.25;;;3.07;96.37
43071;BME280;36278;47.952;21.714;2024-03-25T03:39:37;99164.97;;;3.02;95.35
43071;BME280;36278;47.952;21.714;2024-03-25T03:42:02;99163.78;;;2.93;96.16
43071;BME280;36278;47.952;21.714;2024-03-25T03:44:28;99172.09;;;2.86;97.44
43071;BME280;36278;47.952;21.714;2024-03-25T03:46:54;99174.13;;;2.95;97.80
43071;BME280;36278;47.952;21.714;2024-03-25T03:49:19;99170.00;;;3.05;96.37
43071;BME280;36278;47.952;21.714;2024-03-25T03:51:44;99168.59;;;2.99;96.63
43071;BME280;36278;47.952;21.714;2024-03-25T03:54:10;99175.34;;;2.89;97.31
43071;BME280;36278;47.952;21.714;2024-03-25T03:56:35;99171.88;;;2.89;96.63
43071;BME280;36278;47.952;21.714;2024-03-25T03:59:00;99180.09;;;2.97;96.06
43071;BME280;36278;47.952;21.714;2024-03-25T04:01:26;99177.69;;;2.79;97.54
43071;BME280;36278;47.952;21.714;2024-03-25T04:03:51;99176.38;;;2.58;98.33
43071;BME280;36278;47.952;21.714;2024-03-25T04:06:17;99177.13;;;2.74;98.49
43071;BME280;36278;47.952;21.714;2024-03-25T04:08:42;99187.06;;;2.69;97.25
43071;BME280;36278;47.952;21.714;2024-03-25T04:11:08;99175.25;;;2.76;97.79
43071;BME280;36278;47.952;21.714;2024-03-25T04:13:35;99187.00;;;2.84;96.94
43071;BME280;36278;47.952;21.714;2024-03-25T04:16:02;99184.41;;;2.84;95.83
43071;BME280;36278;47.952;21.714;2024-03-25T04:18:29;99189.38;;;2.74;96.85
43071;BME280;36278;47.952;21.714;2024-03-25T04:20:54;99184.59;;;2.66;97.48
43071;BME280;36278;47.952;21.714;2024-03-25T04:23:19;99186.22;;;2.69;97.12
43071;BME280;36278;47.952;21.714;2024-03-25T04:25:45;99185.53;;;2.65;96.81
43071;BME280;36278;47.952;21.714;2024-03-25T04:28:10;99193.38;;;2.65;97.09
43071;BME280;36278;47.952;21.714;2024-03-25T04:30:35;99191.91;;;2.61;98.06
43071;BME280;36278;47.952;21.714;2024-03-25T04:33:01;99191.06;;;2.61;99.17
43071;BME280;36278;47.952;21.714;2024-03-25T04:35:27;99194.06;;;2.55;98.99
43071;BME280;36278;47.952;21.714;2024-03-25T04:37:53;99197.13;;;2.61;98.66
43071;BME280;36278;47.952;21.714;2024-03-25T04:40:21;99189.84;;;2.66;98.28
43071;BME280;36278;47.952;21.714;2024-03-25T04:42:46;99196.84;;;2.66;97.93
43071;BME280;36278;47.952;21.714;2024-03-25T04:45:12;99190.31;;;2.73;98.00
43071;BME280;36278;47.952;21.714;2024-03-25T04:47:39;99191.81;;;2.77;97.35
43071;BME280;36278;47.952;21.714;2024-03-25T04:50:05;99186.19;;;2.83;97.59
43071;BME280;36278;47.952;21.714;2024-03-25T04:52:30;99185.69;;;2.91;97.00
43071;BME280;36278;47.952;21.714;2024-03-25T04:54:56;99182.50;;;3.00;94.93
43071;BME280;36278;47.952;21.714;2024-03-25T04:57:22;99184.59;;;2.95;95.76
43071;BME280;36278;47.952;21.714;2024-03-25T04:59:48;99192.44;;;2.95;96.32
43071;BME280;36278;47.952;21.714;2024-03-25T05:02:13;99186.66;;;2.90;97.61
43071;BME280;36278;47.952;21.714;2024-03-25T05:04:39;99188.97;;;2.94;97.40
43071;BME280;36278;47.952;21.714;2024-03-25T05:07:04;99184.13;;;2.88;98.05
43071;BME280;36278;47.952;21.714;2024-03-25T05:09:30;99195.78;;;2.97;98.24
43071;BME280;36278;47.952;21.714;2024-03-25T05:11:55;99202.47;;;3.15;96.24
43071;BME280;36278;47.952;21.714;2024-03-25T05:14:21;99204.22;;;3.29;95.15
43071;BME280;36278;47.952;21.714;2024-03-25T05:16:46;99201.13;;;3.36;95.04
43071;BME280;36278;47.952;21.714;2024-03-25T05:19:12;99206.84;;;3.56;93.68
43071;BME280;36278;47.952;21.714;2024-03-25T05:21:37;99208.47;;;3.71;93.52
43071;BME280;36278;47.952;21.714;2024-03-25T05:24:03;99209.56;;;3.81;92.73
43071;BME280;36278;47.952;21.714;2024-03-25T05:26:29;99212.28;;;3.80;92.28
43071;BME280;36278;47.952;21.714;2024-03-25T05:28:55;99208.94;;;3.90;92.86
43071;BME280;36278;47.952;21.714;2024-03-25T05:31:21;99212.88;;;4.10;90.94
43071;BME280;36278;47.952;21.714;2024-03-25T05:33:46;99221.28;;;4.28;90.22
43071;BME280;36278;47.952;21.714;2024-03-25T05:36:12;99208.91;;;4.30;89.24
43071;BME280;36278;47.952;21.714;2024-03-25T05:38:37;99215.41;;;4.37;89.80
43071;BME280;36278;47.952;21.714;2024-03-25T05:41:03;99212.28;;;4.58;88.12
43071;BME280;36278;47.952;21.714;2024-03-25T05:43:29;99216.88;;;4.54;89.11
43071;BME280;36278;47.952;21.714;2024-03-25T05:45:55;99212.91;;;4.61;88.70
43071;BME280;36278;47.952;21.714;2024-03-25T05:48:21;99221.09;;;4.82;87.79
43071;BME280;36278;47.952;21.714;2024-03-25T05:51:03;99221.38;;;4.90;86.55
43071;BME280;36278;47.952;21.714;2024-03-25T05:53:31;99214.56;;;4.88;87.23
43071;BME280;36278;47.952;21.714;2024-03-25T05:55:58;99224.44;;;4.71;87.75
43071;BME280;36278;47.952;21.714;2024-03-25T05:58:24;99233.47;;;4.67;88.42
43071;BME280;36278;47.952;21.714;2024-03-25T06:00:51;99231.38;;;4.60;90.25
43071;BME280;36278;47.952;21.714;2024-03-25T06:03:18;99242.78;;;4.71;88.20
43071;BME280;36278;47.952;21.714;2024-03-25T06:05:44;99241.63;;;4.88;88.12
43071;BME280;36278;47.952;21.714;2024-03-25T06:08:09;99242.38;;;4.90;87.32
43071;BME280;36278;47.952;21.714;2024-03-25T06:10:43;99241.94;;;5.09;86.15
43071;BME280;36278;47.952;21.714;2024-03-25T06:13:09;99243.19;;;5.03;87.31
43071;BME280;36278;47.952;21.714;2024-03-25T06:15:34;99251.59;;;5.09;87.76
43071;BME280;36278;47.952;21.714;2024-03-25T06:17:59;99253.91;;;5.13;87.72
43071;BME280;36278;47.952;21.714;2024-03-25T06:20:25;99265.31;;;5.12;87.33
43071;BME280;36278;47.952;21.714;2024-03-25T06:22:51;99258.56;;;5.33;86.31
43071;BME280;36278;47.952;21.714;2024-03-25T06:25:16;99256.47;;;5.39;85.45
43071;BME280;36278;47.952;21.714;2024-03-25T06:27:42;99260.47;;;5.31;86.47
43071;BME280;36278;47.952;21.714;2024-03-25T06:30:10;99261.63;;;5.64;85.24
43071;BME280;36278;47.952;21.714;2024-03-25T06:32:55;99260.19;;;5.84;84.35
43071;BME280;36278;47.952;21.714;2024-03-25T06:35:42;99265.28;;;5.74;84.27
43071;BME280;36278;47.952;21.714;2024-03-25T06:38:08;99269.69;;;5.74;84.54
43071;BME280;36278;47.952;21.714;2024-03-25T06:40:34;99272.72;;;5.80;83.36
43071;BME280;36278;47.952;21.714;2024-03-25T06:43:00;99276.38;;;5.78;83.84
43071;BME280;36278;47.952;21.714;2024-03-25T06:45:25;99279.13;;;5.76;83.26
43071;BME280;36278;47.952;21.714;2024-03-25T06:47:50;99279.16;;;6.00;82.98
43071;BME280;36278;47.952;21.714;2024-03-25T06:50:16;99272.19;;;6.12;82.08
43071;BME280;36278;47.952;21.714;2024-03-25T06:52:41;99283.63;;;5.87;83.16
43071;BME280;36278;47.952;21.714;2024-03-25T06:55:07;99284.66;;;5.97;83.29
43071;BME280;36278;47.952;21.714;2024-03-25T06:57:33;99276.25;;;6.16;83.30
43071;BME280;36278;47.952;21.714;2024-03-25T06:59:59;99275.50;;;6.38;82.80
43071;BME280;36278;47.952;21.714;2024-03-25T07:02:24;99277.38;;;6.71;81.03
43071;BME280;36278;47.952;21.714;2024-03-25T07:04:49;99277.28;;;6.95;79.87
43071;BME280;36278;47.952;21.714;2024-03-25T07:07:15;99289.22;;;6.88;79.65
43071;BME280;36278;47.952;21.714;2024-03-25T07:09:40;99290.19;;;6.98;78.82
43071;BME280;36278;47.952;21.714;2024-03-25T07:12:06;99292.00;;;6.97;80.09
43071;BME280;36278;47.952;21.714;2024-03-25T07:14:33;99285.19;;;7.28;78.78
43071;BME280;36278;47.952;21.714;2024-03-25T07:16:58;99293.91;;;7.07;78.96
43071;BME280;36278;47.952;21.714;2024-03-25T07:19:23;99299.19;;;7.18;78.64
43071;BME280;36278;47.952;21.714;2024-03-25T07:21:49;99302.41;;;7.21;78.01
43071;BME280;36278;47.952;21.714;2024-03-25T07:24:14;99297.88;;;7.01;79.02
43071;BME280;36278;47.952;21.714;2024-03-25T07:26:40;99296.31;;;7.10;79.00
43071;BME280;36278;47.952;21.714;2024-03-25T07:29:06;99302.19;;;7.36;77.83
43071;BME280;36278;47.952;21.714;2024-03-25T07:31:31;99303.38;;;7.43;76.89
43071;BME280;36278;47.952;21.714;2024-03-25T07:33:57;99308.41;;;7.46;75.96
43071;BME280;36278;47.952;21.714;2024-03-25T07:36:22;99311.00;;;7.68;76.05
43071;BME280;36278;47.952;21.714;2024-03-25T07:38:47;99320.94;;;7.65;76.91
43071;BME280;36278;47.952;21.714;2024-03-25T07:41:13;99328.03;;;7.64;75.11
43071;BME280;36278;47.952;21.714;2024-03-25T07:43:38;99325.75;;;7.59;76.13
43071;BME280;36278;47.952;21.714;2024-03-25T07:46:03;99333.19;;;7.54;77.09
43071;BME280;36278;47.952;21.714;2024-03-25T07:48:30;99333.47;;;7.95;74.51
43071;BME280;36278;47.952;21.714;2024-03-25T07:50:55;99330.88;;;7.83;74.06
43071;BME280;36278;47.952;21.714;2024-03-25T07:53:21;99332.13;;;7.35;76.40
43071;BME280;36278;47.952;21.714;2024-03-25T07:55:46;99331.16;;;7.58;76.79
43071;BME280;36278;47.952;21.714;2024-03-25T07:58:11;99339.63;;;7.84;75.50
43071;BME280;36278;47.952;21.714;2024-03-25T08:00:37;99331.38;;;7.77;76.00
43071;BME280;36278;47.952;21.714;2024-03-25T08:03:02;99327.47;;;8.04;74.90
43071;BME280;36278;47.952;21.714;2024-03-25T08:05:29;99331.34;;;8.32;73.58
43071;BME280;36278;47.952;21.714;2024-03-25T08:07:55;99334.09;;;8.41;72.74
43071;BME280;36278;47.952;21.714;2024-03-25T08:10:20;99340.53;;;8.49;72.31
43071;BME280;36278;47.952;21.714;2024-03-25T08:12:46;99328.19;;;8.70;70.88
43071;BME280;36278;47.952;21.714;2024-03-25T08:15:11;99333.97;;;8.43;71.78
43071;BME280;36278;47.952;21.714;2024-03-25T08:17:38;99325.69;;;8.68;70.71
43071;BME280;36278;47.952;21.714;2024-03-25T08:20:04;99324.63;;;9.02;70.00
43071;BME280;36278;47.952;21.714;2024-03-25T08:22:30;99325.44;;;8.72;69.81
43071;BME280;36278;47.952;21.714;2024-03-25T08:24:56;99319.16;;;8.93;69.34
43071;BME280;36278;47.952;21.714;2024-03-25T08:27:21;99321.47;;;9.08;68.25
43071;BME280;36278;47.952;21.714;2024-03-25T08:29:47;99317.25;;;9.26;68.21
43071;BME280;36278;47.952;21.714;2024-03-25T08:32:14;99330.03;;;9.21;67.67
43071;BME280;36278;47.952;21.714;2024-03-25T08:34:39;99320.78;;;8.64;69.59
43071;BME280;36278;47.952;21.714;2024-03-25T08:37:05;99331.06;;;9.09;69.62
43071;BME280;36278;47.952;21.714;2024-03-25T08:39:30;99326.63;;;9.40;67.98
43071;BME280;36278;47.952;21.714;2024-03-25T08:41:56;99318.34;;;9.54;67.03
43071;BME280;36278;47.952;21.714;2024-03-25T08:44:21;99325.34;;;9.65;66.69
43071;BME280;36278;47.952;21.714;2024-03-25T08:46:47;99314.75;;;9.65;66.44
43071;BME280;36278;47.952;21.714;2024-03-25T08:49:12;99323.22;;;9.59;64.88
43071;BME280;36278;47.952;21.714;2024-03-25T08:51:38;99317.72;;;9.71;64.33
43071;BME280;36278;47.952;21.714;2024-03-25T08:54:03;99314.91;;;9.33;65.48
43071;BME280;36278;47.952;21.714;2024-03-25T08:56:29;99325.63;;;9.31;65.96
43071;BME280;36278;47.952;21.714;2024-03-25T08:58:54;99313.34;;;9.61;65.18
43071;BME280;36278;47.952;21.714;2024-03-25T09:01:20;99313.28;;;9.41;65.26
43071;BME280;36278;47.952;21.714;2024-03-25T09:03:46;99323.31;;;9.78;64.66
43071;BME280;36278;47.952;21.714;2024-03-25T09:06:11;99328.56;;;10.28;62.39
43071;BME280;36278;47.952;21.714;2024-03-25T09:08:37;99327.03;;;10.35;63.03
43071;BME280;36278;47.952;21.714;2024-03-25T09:11:23;99335.38;;;10.79;58.84
43071;BME280;36278;47.952;21.714;2024-03-25T09:13:51;99324.38;;;10.83;59.20
43071;BME280;36278;47.952;21.714;2024-03-25T09:16:16;99316.34;;;11.12;58.98
43071;BME280;36278;47.952;21.714;2024-03-25T09:18:41;99324.47;;;11.38;57.86
43071;BME280;36278;47.952;21.714;2024-03-25T09:21:07;99316.34;;;11.12;58.71
43071;BME280;36278;47.952;21.714;2024-03-25T09:23:32;99318.66;;;11.62;57.29
43071;BME280;36278;47.952;21.714;2024-03-25T09:25:58;99316.16;;;11.23;57.98
43071;BME280;36278;47.952;21.714;2024-03-25T09:28:23;99303.06;;;11.77;57.40
43071;BME280;36278;47.952;21.714;2024-03-25T09:30:49;99316.56;;;11.66;56.44
43071;BME280;36278;47.952;21.714;2024-03-25T09:33:15;99325.72;;;11.44;56.39
43071;BME280;36278;47.952;21.714;2024-03-25T09:35:40;99315.09;;;11.44;56.55
43071;BME280;36278;47.952;21.714;2024-03-25T09:38:07;99315.09;;;11.71;55.75
43071;BME280;36278;47.952;21.714;2024-03-25T09:40:40;99308.72;;;11.64;56.00
43071;BME280;36278;47.952;21.714;2024-03-25T09:43:09;99319.72;;;11.69;55.19
43071;BME280;36278;47.952;21.714;2024-03-25T09:45:38;99302.69;;;11.82;54.92
43071;BME280;36278;47.952;21.714;2024-03-25T09:48:05;99304.53;;;11.99;54.35
43071;BME280;36278;47.952;21.714;2024-03-25T09:50:32;99306.19;;;12.35;53.11
43071;BME280;36278;47.952;21.714;2024-03-25T09:52:58;99304.44;;;12.26;52.66
43071;BME280;36278;47.952;21.714;2024-03-25T09:55:24;99299.81;;;12.11;53.79
43071;BME280;36278;47.952;21.714;2024-03-25T09:57:50;99303.72;;;11.89;53.84
43071;BME280;36278;47.952;21.714;2024-03-25T10:00:15;99312.81;;;11.86;53.22
43071;BME280;36278;47.952;21.714;2024-03-25T10:02:42;99301.19;;;12.50;51.65
43071;BME280;36278;47.952;21.714;2024-03-25T10:05:08;99308.91;;;12.44;50.84
43071;BME280;36278;47.952;21.714;2024-03-25T10:07:34;99301.09;;;12.42;50.00
